Terminal Aerodrome Forecast
Issued by NWS Wilmington, OH

Current Version | Previous Version | Graphics & Text | Print | Product List | Glossary On
Versions: 1 2 3 4 5 6 7 8 9 10 11 12 13 14 15 16 17 18 19 20
000
FTUS41 KILN 011700
TAFILN
TAF
KILN 011734Z 0118/0218 VRB05KT P6SM BKN012
     FM011900 10004KT P6SM SCT015
     FM012000 10003KT P6SM SKC
     FM020900 13004KT 2SM BR SKC
     FM021300 15007KT P6SM SCT050 BKN120
     FM021600 18008G16KT P6SM SCT050 BKN100=

USA.gov is the U.S. government's official web portal to all federal, state and local government web resources and services.